sensor_id;sensor_type;location;lat;lon;timestamp;pressure;altitude;pressure_sealevel;temperature;humidity
33280;BME280;20403;43.114;12.434;2023-06-22T00:01:58;99565.03;;;20.60;100.00
33280;BME280;20403;43.114;12.434;2023-06-22T00:04:24;99567.94;;;20.59;100.00
33280;BME280;20403;43.114;12.434;2023-06-22T00:06:50;99571.16;;;20.50;100.00
33280;BME280;20403;43.114;12.434;2023-06-22T00:09:16;99568.78;;;20.49;100.00
33280;BME280;20403;43.114;12.434;2023-06-22T00:11:41;99567.47;;;20.46;100.00
33280;BME280;20403;43.114;12.434;2023-06-22T00:14:06;99569.06;;;20.42;100.00
33280;BME280;20403;43.114;12.434;2023-06-22T00:16:32;99558.59;;;20.27;100.00
33280;BME280;20403;43.114;12.434;2023-06-22T00:18:58;99566.03;;;20.25;100.00
33280;BME280;20403;43.114;12.434;2023-06-22T00:21:29;99557.00;;;20.26;100.00
33280;BME280;20403;43.114;12.434;2023-06-22T00:23:55;99558.81;;;20.30;100.00
33280;BME280;20403;43.114;12.434;2023-06-22T00:26:21;99559.88;;;20.34;100.00
33280;BME280;20403;43.114;12.434;2023-06-22T00:28:47;99563.06;;;20.31;100.00
33280;BME280;20403;43.114;12.434;2023-06-22T00:31:13;99556.72;;;20.27;100.00
33280;BME280;20403;43.114;12.434;2023-06-22T00:33:38;99563.38;;;20.25;100.00
33280;BME280;20403;43.114;12.434;2023-06-22T00:36:04;99557.03;;;20.21;100.00
33280;BME280;20403;43.114;12.434;2023-06-22T00:38:29;99559.50;;;20.07;100.00
33280;BME280;20403;43.114;12.434;2023-06-22T00:40:55;99562.19;;;19.97;100.00
33280;BME280;20403;43.114;12.434;2023-06-22T00:43:20;99559.28;;;19.93;100.00
33280;BME280;20403;43.114;12.434;2023-06-22T00:45:46;99563.81;;;19.92;100.00
33280;BME280;20403;43.114;12.434;2023-06-22T00:48:13;99557.41;;;19.99;100.00
33280;BME280;20403;43.114;12.434;2023-06-22T00:50:39;99562.16;;;20.02;100.00
33280;BME280;20403;43.114;12.434;2023-06-22T00:53:06;99551.63;;;19.97;100.00
33280;BME280;20403;43.114;12.434;2023-06-22T00:55:35;99552.13;;;19.93;100.00
33280;BME280;20403;43.114;12.434;2023-06-22T00:58:03;99551.63;;;19.91;100.00
33280;BME280;20403;43.114;12.434;2023-06-22T01:00:31;99551.63;;;19.86;100.00
33280;BME280;20403;43.114;12.434;2023-06-22T01:02:57;99549.81;;;19.82;100.00
33280;BME280;20403;43.114;12.434;2023-06-22T01:05:24;99547.47;;;19.80;100.00
33280;BME280;20403;43.114;12.434;2023-06-22T01:13:06;99546.69;;;19.69;100.00
33280;BME280;20403;43.114;12.434;2023-06-22T01:15:53;99544.81;;;19.65;100.00
33280;BME280;20403;43.114;12.434;2023-06-22T01:18:22;99548.53;;;19.59;100.00
33280;BME280;20403;43.114;12.434;2023-06-22T01:20:52;99547.81;;;19.48;100.00
33280;BME280;20403;43.114;12.434;2023-06-22T01:23:51;99544.63;;;19.46;100.00
33280;BME280;20403;43.114;12.434;2023-06-22T01:26:37;99554.41;;;19.45;100.00
33280;BME280;20403;43.114;12.434;2023-06-22T01:29:04;99539.59;;;19.44;100.00
33280;BME280;20403;43.114;12.434;2023-06-22T01:31:33;99538.53;;;19.40;100.00
33280;BME280;20403;43.114;12.434;2023-06-22T01:34:02;99539.34;;;19.46;100.00
33280;BME280;20403;43.114;12.434;2023-06-22T01:36:29;99542.19;;;19.55;100.00
33280;BME280;20403;43.114;12.434;2023-06-22T01:38:57;99546.72;;;19.54;100.00
33280;BME280;20403;43.114;12.434;2023-06-22T01:41:25;99536.41;;;19.52;100.00
33280;BME280;20403;43.114;12.434;2023-06-22T01:43:51;99544.88;;;19.49;100.00
33280;BME280;20403;43.114;12.434;2023-06-22T01:46:18;99546.78;;;19.39;100.00
33280;BME280;20403;43.114;12.434;2023-06-22T01:48:45;99547.56;;;19.29;100.00
33280;BME280;20403;43.114;12.434;2023-06-22T01:51:11;99547.31;;;19.30;100.00
33280;BME280;20403;43.114;12.434;2023-06-22T01:53:37;99542.00;;;19.30;100.00
33280;BME280;20403;43.114;12.434;2023-06-22T01:56:03;99547.31;;;19.30;100.00
33280;BME280;20403;43.114;12.434;2023-06-22T01:58:30;99549.16;;;19.35;100.00
33280;BME280;20403;43.114;12.434;2023-06-22T02:01:17;99543.31;;;19.38;100.00
33280;BME280;20403;43.114;12.434;2023-06-22T02:03:52;99535.13;;;19.40;100.00
33280;BME280;20403;43.114;12.434;2023-06-22T02:06:27;99541.19;;;19.40;100.00
33280;BME280;20403;43.114;12.434;2023-06-22T02:09:02;99535.38;;;19.48;100.00
33280;BME280;20403;43.114;12.434;2023-06-22T02:11:29;99533.50;;;19.49;100.00
33280;BME280;20403;43.114;12.434;2023-06-22T02:13:57;99528.22;;;19.44;100.00
33280;BME280;20403;43.114;12.434;2023-06-22T02:16:23;99529.00;;;19.49;100.00
33280;BME280;20403;43.114;12.434;2023-06-22T02:18:49;99529.53;;;19.46;100.00
33280;BME280;20403;43.114;12.434;2023-06-22T02:21:21;99529.53;;;19.46;100.00
33280;BME280;20403;43.114;12.434;2023-06-22T02:23:47;99521.09;;;19.39;100.00
33280;BME280;20403;43.114;12.434;2023-06-22T02:26:13;99520.59;;;19.32;100.00
33280;BME280;20403;43.114;12.434;2023-06-22T02:28:39;99528.81;;;19.25;100.00
33280;BME280;20403;43.114;12.434;2023-06-22T02:31:04;99521.66;;;19.26;100.00
33280;BME280;20403;43.114;12.434;2023-06-22T02:33:30;99526.69;;;19.22;100.00
33280;BME280;20403;43.114;12.434;2023-06-22T02:35:55;99531.72;;;19.19;100.00
33280;BME280;20403;43.114;12.434;2023-06-22T02:38:20;99528.28;;;19.13;100.00
33280;BME280;20403;43.114;12.434;2023-06-22T02:40:46;99531.19;;;19.17;100.00
33280;BME280;20403;43.114;12.434;2023-06-22T02:43:13;99530.69;;;19.09;100.00
33280;BME280;20403;43.114;12.434;2023-06-22T02:45:38;99529.09;;;19.03;100.00
33280;BME280;20403;43.114;12.434;2023-06-22T02:48:04;99530.97;;;18.93;100.00
33280;BME280;20403;43.114;12.434;2023-06-22T02:50:30;99525.69;;;18.82;100.00
33280;BME280;20403;43.114;12.434;2023-06-22T02:52:55;99524.38;;;18.80;100.00
33280;BME280;20403;43.114;12.434;2023-06-22T02:55:21;99529.13;;;18.83;100.00
33280;BME280;20403;43.114;12.434;2023-06-22T02:57:46;99530.19;;;18.82;100.00
33280;BME280;20403;43.114;12.434;2023-06-22T03:00:13;99534.94;;;18.80;100.00
33280;BME280;20403;43.114;12.434;2023-06-22T03:02:47;99532.56;;;18.78;100.00
33280;BME280;20403;43.114;12.434;2023-06-22T03:05:14;99539.19;;;18.81;100.00
33280;BME280;20403;43.114;12.434;2023-06-22T03:07:43;99544.69;;;18.74;100.00
33280;BME280;20403;43.114;12.434;2023-06-22T03:10:13;99542.59;;;18.76;100.00
33280;BME280;20403;43.114;12.434;2023-06-22T03:12:39;99545.50;;;18.80;100.00
33280;BME280;20403;43.114;12.434;2023-06-22T03:15:09;99541.28;;;18.79;100.00
33280;BME280;20403;43.114;12.434;2023-06-22T03:17:36;99539.94;;;18.76;100.00
33280;BME280;20403;43.114;12.434;2023-06-22T03:20:05;99539.69;;;18.67;100.00
33280;BME280;20403;43.114;12.434;2023-06-22T03:22:35;99538.59;;;18.74;100.00
33280;BME280;20403;43.114;12.434;2023-06-22T03:25:01;99547.13;;;18.81;100.00
33280;BME280;20403;43.114;12.434;2023-06-22T03:27:26;99550.25;;;18.83;100.00
33280;BME280;20403;43.114;12.434;2023-06-22T03:29:51;99543.16;;;18.83;100.00
33280;BME280;20403;43.114;12.434;2023-06-22T03:32:17;99544.97;;;18.78;100.00
33280;BME280;20403;43.114;12.434;2023-06-22T03:34:42;99550.78;;;18.75;100.00
33280;BME280;20403;43.114;12.434;2023-06-22T03:37:13;99544.69;;;18.74;100.00
33280;BME280;20403;43.114;12.434;2023-06-22T03:39:39;99548.38;;;18.73;100.00
33280;BME280;20403;43.114;12.434;2023-06-22T03:42:05;99541.78;;;18.76;100.00
33280;BME280;20403;43.114;12.434;2023-06-22T03:44:30;99550.78;;;18.75;100.00
33280;BME280;20403;43.114;12.434;2023-06-22T03:46:56;99547.88;;;18.76;100.00
33280;BME280;20403;43.114;12.434;2023-06-22T03:49:21;99546.03;;;18.72;100.00
33280;BME280;20403;43.114;12.434;2023-06-22T03:51:47;99555.25;;;18.64;100.00
33280;BME280;20403;43.114;12.434;2023-06-22T03:54:12;99552.06;;;18.62;100.00
33280;BME280;20403;43.114;12.434;2023-06-22T03:56:37;99551.56;;;18.65;100.00
33280;BME280;20403;43.114;12.434;2023-06-22T03:59:03;99548.09;;;18.64;100.00
33280;BME280;20403;43.114;12.434;2023-06-22T04:01:29;99553.69;;;18.63;100.00
33280;BME280;20403;43.114;12.434;2023-06-22T04:03:54;99552.59;;;18.64;100.00
33280;BME280;20403;43.114;12.434;2023-06-22T04:06:19;99554.75;;;18.67;100.00
33280;BME280;20403;43.114;12.434;2023-06-22T04:08:45;99545.50;;;18.75;100.00
33280;BME280;20403;43.114;12.434;2023-06-22T04:11:16;99542.06;;;18.74;100.00
33280;BME280;20403;43.114;12.434;2023-06-22T04:13:41;99547.13;;;18.81;100.00
33280;BME280;20403;43.114;12.434;2023-06-22T04:16:07;99542.06;;;18.84;100.00
33280;BME280;20403;43.114;12.434;2023-06-22T04:18:32;99544.44;;;18.91;100.00
33280;BME280;20403;43.114;12.434;2023-06-22T04:20:58;99548.94;;;19.01;100.00
33280;BME280;20403;43.114;12.434;2023-06-22T04:23:23;99549.75;;;19.06;100.00
33280;BME280;20403;43.114;12.434;2023-06-22T04:25:48;99547.09;;;19.12;100.00
33280;BME280;20403;43.114;12.434;2023-06-22T04:28:14;99547.84;;;19.17;100.00
33280;BME280;20403;43.114;12.434;2023-06-22T04:30:39;99552.34;;;19.22;100.00
33280;BME280;20403;43.114;12.434;2023-06-22T04:33:13;99543.09;;;19.29;100.00
33280;BME280;20403;43.114;12.434;2023-06-22T04:35:38;99542.81;;;19.31;100.00
33280;BME280;20403;43.114;12.434;2023-06-22T04:38:06;99545.72;;;19.29;100.00
33280;BME280;20403;43.114;12.434;2023-06-22T04:40:32;99544.41;;;19.32;100.00
33280;BME280;20403;43.114;12.434;2023-06-22T04:42:57;99539.59;;;19.44;100.00
33280;BME280;20403;43.114;12.434;2023-06-22T04:45:23;99539.31;;;19.51;100.00
33280;BME280;20403;43.114;12.434;2023-06-22T04:47:48;99540.09;;;19.57;100.00
33280;BME280;20403;43.114;12.434;2023-06-22T04:50:14;99545.38;;;19.57;100.00
33280;BME280;20403;43.114;12.434;2023-06-22T04:52:40;99545.09;;;19.68;100.00
33280;BME280;20403;43.114;12.434;2023-06-22T04:55:06;99545.06;;;19.79;100.00
33280;BME280;20403;43.114;12.434;2023-06-22T04:57:31;99551.13;;;19.89;100.00
33280;BME280;20403;43.114;12.434;2023-06-22T05:00:00;99550.25;;;20.04;100.00
33280;BME280;20403;43.114;12.434;2023-06-22T05:02:46;99551.47;;;20.22;100.00
33280;BME280;20403;43.114;12.434;2023-06-22T05:05:12;99550.66;;;20.27;100.00
33280;BME280;20403;43.114;12.434;2023-06-22T05:07:45;99554.59;;;20.29;100.00
33280;BME280;20403;43.114;12.434;2023-06-22T05:10:13;99555.31;;;20.45;100.00
33280;BME280;20403;43.114;12.434;2023-06-22T05:12:40;99564.56;;;20.48;100.00
33280;BME280;20403;43.114;12.434;2023-06-22T05:15:06;99562.94;;;20.57;100.00
33280;BME280;20403;43.114;12.434;2023-06-22T05:17:32;99561.59;;;20.60;100.00
33280;BME280;20403;43.114;12.434;2023-06-22T05:19:58;99566.56;;;20.66;100.00
33280;BME280;20403;43.114;12.434;2023-06-22T05:22:23;99565.44;;;20.72;100.00
33280;BME280;20403;43.114;12.434;2023-06-22T05:24:48;99576.28;;;20.76;100.00
33280;BME280;20403;43.114;12.434;2023-06-22T05:27:14;99571.72;;;20.87;100.00
33280;BME280;20403;43.114;12.434;2023-06-22T05:29:40;99573.22;;;20.98;100.00
33280;BME280;20403;43.114;12.434;2023-06-22T05:32:05;99570.72;;;21.07;100.00
33280;BME280;20403;43.114;12.434;2023-06-22T05:34:31;99571.72;;;21.16;100.00
33280;BME280;20403;43.114;12.434;2023-06-22T05:36:57;99568.72;;;21.23;100.00
33280;BME280;20403;43.114;12.434;2023-06-22T05:39:24;99574.56;;;21.25;100.00
33280;BME280;20403;43.114;12.434;2023-06-22T05:41:50;99574.72;;;21.33;100.00
33280;BME280;20403;43.114;12.434;2023-06-22T05:44:15;99575.16;;;21.46;100.00
33280;BME280;20403;43.114;12.434;2023-06-22T05:46:42;99583.50;;;21.58;100.00
33280;BME280;20403;43.114;12.434;2023-06-22T05:49:12;99581.09;;;21.61;100.00
33280;BME280;20403;43.114;12.434;2023-06-22T05:51:37;99581.97;;;21.76;100.00
33280;BME280;20403;43.114;12.434;2023-06-22T05:54:03;99585.09;;;21.83;100.00
33280;BME280;20403;43.114;12.434;2023-06-22T05:56:28;99578.66;;;21.89;100.00
33280;BME280;20403;43.114;12.434;2023-06-22T05:58:53;99578.31;;;21.96;100.00
33280;BME280;20403;43.114;12.434;2023-06-22T06:01:19;99584.84;;;22.03;100.00
33280;BME280;20403;43.114;12.434;2023-06-22T06:03:45;99585.19;;;22.16;100.00
33280;BME280;20403;43.114;12.434;2023-06-22T06:06:10;99582.16;;;22.28;100.00
33280;BME280;20403;43.114;12.434;2023-06-22T06:08:37;99578.34;;;22.34;100.00
33280;BME280;20403;43.114;12.434;2023-06-22T06:11:02;99585.09;;;22.45;100.00
33280;BME280;20403;43.114;12.434;2023-06-22T06:13:28;99573.59;;;22.50;100.00
33280;BME280;20403;43.114;12.434;2023-06-22T06:15:53;99570.00;;;22.59;100.00
33280;BME280;20403;43.114;12.434;2023-06-22T06:18:22;99571.53;;;22.79;100.00
33280;BME280;20403;43.114;12.434;2023-06-22T06:20:47;99566.44;;;22.83;100.00
33280;BME280;20403;43.114;12.434;2023-06-22T06:23:13;99563.00;;;22.96;100.00
33280;BME280;20403;43.114;12.434;2023-06-22T06:25:38;99569.09;;;23.02;100.00
33280;BME280;20403;43.114;12.434;2023-06-22T06:28:04;99579.16;;;23.19;100.00
33280;BME280;20403;43.114;12.434;2023-06-22T06:30:30;99570.59;;;23.36;100.00
33280;BME280;20403;43.114;12.434;2023-06-22T06:32:55;99563.50;;;23.45;100.00
33280;BME280;20403;43.114;12.434;2023-06-22T06:35:20;99567.75;;;23.46;100.00
33280;BME280;20403;43.114;12.434;2023-06-22T06:37:48;99566.38;;;23.48;100.00
33280;BME280;20403;43.114;12.434;2023-06-22T06:40:14;99567.34;;;23.66;100.00
33280;BME280;20403;43.114;12.434;2023-06-22T06:42:42;99570.13;;;23.75;100.00
33280;BME280;20403;43.114;12.434;2023-06-22T06:45:11;99570.44;;;23.87;100.00
33280;BME280;20403;43.114;12.434;2023-06-22T06:47:37;99568.72;;;24.05;100.00
33280;BME280;20403;43.114;12.434;2023-06-22T06:50:04;99559.41;;;24.17;100.00
33280;BME280;20403;43.114;12.434;2023-06-22T06:52:29;99565.16;;;24.32;100.00
33280;BME280;20403;43.114;12.434;2023-06-22T06:54:55;99571.78;;;24.35;100.00
33280;BME280;20403;43.114;12.434;2023-06-22T06:57:20;99567.91;;;24.41;100.00
33280;BME280;20403;43.114;12.434;2023-06-22T06:59:47;99565.03;;;24.51;100.00
33280;BME280;20403;43.114;12.434;2023-06-22T07:02:13;99569.00;;;24.54;100.00
33280;BME280;20403;43.114;12.434;2023-06-22T07:04:39;99565.03;;;24.51;100.00
33280;BME280;20403;43.114;12.434;2023-06-22T07:07:05;99562.75;;;24.59;100.00
33280;BME280;20403;43.114;12.434;2023-06-22T07:09:30;99562.31;;;24.65;100.00
33280;BME280;20403;43.114;12.434;2023-06-22T07:11:56;99564.13;;;24.79;100.00
33280;BME280;20403;43.114;12.434;2023-06-22T07:14:21;99560.72;;;24.87;100.00
33280;BME280;20403;43.114;12.434;2023-06-22T07:16:47;99559.97;;;24.95;100.00
33280;BME280;20403;43.114;12.434;2023-06-22T07:19:12;99553.91;;;25.03;100.00
33280;BME280;20403;43.114;12.434;2023-06-22T07:21:38;99549.25;;;25.17;100.00
33280;BME280;20403;43.114;12.434;2023-06-22T07:24:05;99553.78;;;25.40;100.00
33280;BME280;20403;43.114;12.434;2023-06-22T07:26:31;99548.31;;;25.62;100.00
33280;BME280;20403;43.114;12.434;2023-06-22T07:28:57;99548.84;;;25.73;100.00
33280;BME280;20403;43.114;12.434;2023-06-22T07:31:24;99550.63;;;25.95;100.00
33280;BME280;20403;43.114;12.434;2023-06-22T07:33:50;99543.84;;;26.06;100.00
33280;BME280;20403;43.114;12.434;2023-06-22T07:36:16;99545.28;;;26.12;100.00
33280;BME280;20403;43.114;12.434;2023-06-22T07:38:42;99554.09;;;26.22;100.00
33280;BME280;20403;43.114;12.434;2023-06-22T07:41:07;99547.03;;;26.34;100.00
33280;BME280;20403;43.114;12.434;2023-06-22T07:43:33;99551.09;;;26.49;100.00
33280;BME280;20403;43.114;12.434;2023-06-22T07:46:04;99548.09;;;26.59;100.00
33280;BME280;20403;43.114;12.434;2023-06-22T07:48:30;99548.09;;;26.59;100.00
33280;BME280;20403;43.114;12.434;2023-06-22T07:50:55;99549.50;;;26.74;100.00
33280;BME280;20403;43.114;12.434;2023-06-22T07:53:21;99539.41;;;26.89;100.00
33280;BME280;20403;43.114;12.434;2023-06-22T07:55:48;99543.00;;;26.93;100.00
33280;BME280;20403;43.114;12.434;2023-06-22T07:58:13;99538.25;;;26.98;100.00
33280;BME280;20403;43.114;12.434;2023-06-22T08:00:40;99530.94;;;27.16;100.00
33280;BME280;20403;43.114;12.434;2023-06-22T08:03:06;99541.94;;;27.32;100.00
33280;BME280;20403;43.114;12.434;2023-06-22T08:05:32;99536.53;;;27.41;100.00
33280;BME280;20403;43.114;12.434;2023-06-22T08:07:57;99542.13;;;27.57;100.00
33280;BME280;20403;43.114;12.434;2023-06-22T08:10:23;99537.16;;;27.67;100.00
33280;BME280;20403;43.114;12.434;2023-06-22T08:12:48;99538.09;;;27.72;100.00
33280;BME280;20403;43.114;12.434;2023-06-22T08:15:14;99535.63;;;27.66;100.00
33280;BME280;20403;43.114;12.434;2023-06-22T08:17:40;99531.28;;;27.53;100.00
33280;BME280;20403;43.114;12.434;2023-06-22T08:20:07;99526.84;;;27.57;100.00
33280;BME280;20403;43.114;12.434;2023-06-22T08:22:37;99532.16;;;27.66;100.00
33280;BME280;20403;43.114;12.434;2023-06-22T08:25:03;99524.31;;;27.82;100.00
33280;BME280;20403;43.114;12.434;2023-06-22T08:27:30;99527.75;;;28.12;100.00
33280;BME280;20403;43.114;12.434;2023-06-22T08:29:57;99523.25;;;28.37;100.00
33280;BME280;20403;43.114;12.434;2023-06-22T08:32:27;99518.84;;;28.54;100.00
33280;BME280;20403;43.114;12.434;2023-06-22T08:34:57;99529.84;;;28.61;100.00
33280;BME280;20403;43.114;12.434;2023-06-22T08:37:22;99525.81;;;28.67;100.00
33280;BME280;20403;43.114;12.434;2023-06-22T08:39:59;99522.03;;;28.68;100.00
33280;BME280;20403;43.114;12.434;2023-06-22T08:42:25;99528.56;;;28.79;100.00
33280;BME280;20403;43.114;12.434;2023-06-22T08:44:51;99528.34;;;28.97;100.00
33280;BME280;20403;43.114;12.434;2023-06-22T08:47:16;99527.34;;;29.01;100.00
33280;BME280;20403;43.114;12.434;2023-06-22T08:49:42;99515.59;;;28.94;100.00
33280;BME280;20403;43.114;12.434;2023-06-22T08:52:07;99512.44;;;28.91;100.00
33280;BME280;20403;43.114;12.434;2023-06-22T08:54:33;99523.06;;;28.88;100.00
33280;BME280;20403;43.114;12.434;2023-06-22T08:57:00;99517.16;;;28.95;100.00
33280;BME280;20403;43.114;12.434;2023-06-22T08:59:25;99513.59;;;29.15;100.00
33280;BME280;20403;43.114;12.434;2023-06-22T09:01:51;99519.31;;;29.38;100.00
33280;BME280;20403;43.114;12.434;2023-06-22T09:04:16;99519.53;;;29.45;100.00
33280;BME280;20403;43.114;12.434;2023-06-22T09:06:42;99522.88;;;29.54;100.00
33280;BME280;20403;43.114;12.434;2023-06-22T09:09:12;99508.00;;;29.69;100.00
33280;BME280;20403;43.114;12.434;2023-06-22T09:11:38;99505.16;;;29.78;100.00
33280;BME280;20403;43.114;12.434;2023-06-22T09:14:03;99506.97;;;29.74;100.00
33280;BME280;20403;43.114;12.434;2023-06-22T09:16:29;99509.88;;;29.57;100.00
33280;BME280;20403;43.114;12.434;2023-06-22T09:18:55;99507.56;;;29.30;100.00
33280;BME280;20403;43.114;12.434;2023-06-22T09:21:20;99503.88;;;29.35;100.00
33280;BME280;20403;43.114;12.434;2023-06-22T09:23:46;99500.03;;;29.48;100.00
33280;BME280;20403;43.114;12.434;2023-06-22T09:26:15;99493.63;;;29.53;100.00
33280;BME280;20403;43.114;12.434;2023-06-22T09:28:41;99502.63;;;29.69;100.00
33280;BME280;20403;43.114;12.434;2023-06-22T09:31:07;99499.06;;;29.93;100.00
33280;BME280;20403;43.114;12.434;2023-06-22T09:33:32;99495.06;;;30.15;100.00
33280;BME280;20403;43.114;12.434;2023-06-22T09:35:58;99494.47;;;30.50;100.00
33280;BME280;20403;43.114;12.434;2023-06-22T09:38:23;99496.66;;;30.76;100.00
33280;BME280;20403;43.114;12.434;2023-06-22T09:40:49;99491.56;;;30.87;89.87
33280;BME280;20403;43.114;12.434;2023-06-22T09:43:14;99488.44;;;31.01;91.88
33280;BME280;20403;43.114;12.434;2023-06-22T09:45:39;99489.81;;;31.11;86.29
33280;BME280;20403;43.114;12.434;2023-06-22T09:48:05;99486.03;;;31.31;87.15
33280;BME280;20403;43.114;12.434;2023-06-22T09:50:30;99487.63;;;31.52;87.33
33280;BME280;20403;43.114;12.434;2023-06-22T09:52:56;99483.81;;;31.72;98.97
33280;BME280;20403;43.114;12.434;2023-06-22T09:55:22;99484.34;;;31.78;91.18
33280;BME280;20403;43.114;12.434;2023-06-22T09:57:47;99482.63;;;31.89;85.12
33280;BME280;20403;43.114;12.434;2023-06-22T10:00:13;99482.50;;;31.82;77.70
33280;BME280;20403;43.114;12.434;2023-06-22T10:02:41;99475.63;;;31.85;77.13
33280;BME280;20403;43.114;12.434;2023-06-22T10:05:07;99475.97;;;31.83;78.94
33280;BME280;20403;43.114;12.434;2023-06-22T10:07:33;99474.50;;;32.05;86.97
33280;BME280;20403;43.114;12.434;2023-06-22T10:09:58;99480.84;;;32.16;81.75
33280;BME280;20403;43.114;12.434;2023-06-22T10:12:24;99470.59;;;32.45;77.78
33280;BME280;20403;43.114;12.434;2023-06-22T10:14:49;99465.75;;;32.77;75.46
33280;BME280;20403;43.114;12.434;2023-06-22T10:17:14;99462.50;;;32.95;70.19
33280;BME280;20403;43.114;12.434;2023-06-22T10:19:40;99460.78;;;33.06;80.85
33280;BME280;20403;43.114;12.434;2023-06-22T10:22:07;99468.44;;;33.04;79.59
33280;BME280;20403;43.114;12.434;2023-06-22T10:24:32;99467.34;;;33.05;74.05
33280;BME280;20403;43.114;12.434;2023-06-22T10:26:57;99463.28;;;33.18;68.63
33280;BME280;20403;43.114;12.434;2023-06-22T10:29:23;99467.44;;;33.12;77.34
33280;BME280;20403;43.114;12.434;2023-06-22T10:31:48;99459.28;;;33.09;69.42
33280;BME280;20403;43.114;12.434;2023-06-22T10:34:14;99464.31;;;33.37;68.46
33280;BME280;20403;43.114;12.434;2023-06-22T10:36:39;99457.91;;;33.52;58.31
33280;BME280;20403;43.114;12.434;2023-06-22T10:39:05;99457.81;;;33.72;56.58
33280;BME280;20403;43.114;12.434;2023-06-22T10:41:31;99460.88;;;33.70;53.22
33280;BME280;20403;43.114;12.434;2023-06-22T10:43:56;99448.28;;;33.85;53.31
33280;BME280;20403;43.114;12.434;2023-06-22T10:46:23;99444.88;;;33.92;50.44
33280;BME280;20403;43.114;12.434;2023-06-22T10:48:49;99447.16;;;33.89;57.48
33280;BME280;20403;43.114;12.434;2023-06-22T10:51:14;99441.69;;;33.82;47.97
33280;BME280;20403;43.114;12.434;2023-06-22T10:53:40;99441.84;;;33.97;49.19
33280;BME280;20403;43.114;12.434;2023-06-22T10:56:05;99435.09;;;34.17;49.46
33280;BME280;20403;43.114;12.434;2023-06-22T10:58:30;99440.50;;;34.14;48.20
33280;BME280;20403;43.114;12.434;2023-06-22T11:00:56;99438.34;;;34.30;47.60
33280;BME280;20403;43.114;12.434;2023-06-22T11:03:21;99434.66;;;34.52;51.64
33280;BME280;20403;43.114;12.434;2023-06-22T11:05:47;99431.69;;;34.65;48.00
33280;BME280;20403;43.114;12.434;2023-06-22T11:08:13;99425.81;;;34.59;46.13
33280;BME280;20403;43.114;12.434;2023-06-22T11:10:38;99427.72;;;34.59;49.04
33280;BME280;20403;43.114;12.434;2023-06-22T11:13:03;99427.72;;;34.59;47.87
33280;BME280;20403;43.114;12.434;2023-06-22T11:15:30;99436.25;;;34.57;52.28
33280;BME280;20403;43.114;12.434;2023-06-22T11:17:55;99422.06;;;34.75;48.94
33280;BME280;20403;43.114;12.434;2023-06-22T11:20:21;99421.28;;;34.74;45.86
33280;BME280;20403;43.114;12.434;2023-06-22T11:22:46;99421.69;;;34.76;47.70
33280;BME280;20403;43.114;12.434;2023-06-22T11:25:12;99417.84;;;34.81;43.70
33280;BME280;20403;43.114;12.434;2023-06-22T11:27:37;99412.84;;;34.86;40.49
33280;BME280;20403;43.114;12.434;2023-06-22T11:30:03;99400.16;;;35.01;39.81
33280;BME280;20403;43.114;12.434;2023-06-22T11:32:29;99410.66;;;35.10;42.00
33280;BME280;20403;43.114;12.434;2023-06-22T11:34:55;99400.22;;;35.12;38.54
33280;BME280;20403;43.114;12.434;2023-06-22T11:37:20;99388.72;;;35.29;38.28
33280;BME280;20403;43.114;12.434;2023-06-22T11:39:45;99391.81;;;35.31;39.07
33280;BME280;20403;43.114;12.434;2023-06-22T11:42:11;99384.53;;;35.57;42.58
33280;BME280;20403;43.114;12.434;2023-06-22T11:44:36;99392.72;;;35.68;43.49
33280;BME280;20403;43.114;12.434;2023-06-22T11:47:02;99391.13;;;35.52;37.26
33280;BME280;20403;43.114;12.434;2023-06-22T11:49:30;99384.06;;;35.33;37.15
33280;BME280;20403;43.114;12.434;2023-06-22T11:51:56;99379.47;;;35.55;37.66
33280;BME280;20403;43.114;12.434;2023-06-22T11:54:21;99375.28;;;35.69;42.28
33280;BME280;20403;43.114;12.434;2023-06-22T11:56:47;99379.53;;;35.70;38.59
33280;BME280;20403;43.114;12.434;2023-06-22T11:59:12;99372.13;;;35.60;37.87
33280;BME280;20403;43.114;12.434;2023-06-22T12:01:38;99367.53;;;35.71;38.72
33280;BME280;20403;43.114;12.434;2023-06-22T12:04:04;99370.66;;;35.94;41.97
33280;BME280;20403;43.114;12.434;2023-06-22T12:06:32;99373.00;;;36.07;40.61
33280;BME280;20403;43.114;12.434;2023-06-22T12:08:58;99366.44;;;36.11;39.91
33280;BME280;20403;43.114;12.434;2023-06-22T12:11:23;99367.59;;;36.17;40.07
33280;BME280;20403;43.114;12.434;2023-06-22T12:13:48;99367.97;;;35.98;38.91
33280;BME280;20403;43.114;12.434;2023-06-22T12:16:14;99364.91;;;36.10;41.38
33280;BME280;20403;43.114;12.434;2023-06-22T12:18:39;99368.78;;;36.20;41.72
33280;BME280;20403;43.114;12.434;2023-06-22T12:21:05;99362.19;;;36.25;37.89
33280;BME280;20403;43.114;12.434;2023-06-22T12:23:30;99364.09;;;36.28;38.67
33280;BME280;20403;43.114;12.434;2023-06-22T12:25:55;99364.88;;;36.39;39.81
33280;BME280;20403;43.114;12.434;2023-06-22T12:28:21;99367.22;;;36.26;35.47
33280;BME280;20403;43.114;12.434;2023-06-22T12:30:48;99367.22;;;36.15;34.64
33280;BME280;20403;43.114;12.434;2023-06-22T12:33:14;99366.03;;;36.27;33.86
33280;BME280;20403;43.114;12.434;2023-06-22T12:35:39;99357.47;;;36.00;34.23
33280;BME280;20403;43.114;12.434;2023-06-22T12:38:04;99352.88;;;36.33;34.87
33280;BME280;20403;43.114;12.434;2023-06-22T12:40:32;99347.41;;;36.54;36.58
33280;BME280;20403;43.114;12.434;2023-06-22T12:42:58;99348.97;;;36.37;32.49
33280;BME280;20403;43.114;12.434;2023-06-22T12:45:24;99348.97;;;36.16;35.60